Time,TemperatureF,DewpointF,PressureIn,WindDirection,WindDirectionDegrees,WindSpeedMPH,WindSpeedGustMPH,Humidity,HourlyPrecipIn,Conditions,Clouds,dailyrainin,SoftwareType,DateUTC
2013-04-13 00:02:00,36.0,30.0,29.93,SE,132,0.0,2.0,80,0.00,,,0.00,,2013-04-13 06:02:00,
2013-04-13 00:12:00,36.0,30.0,29.93,SE,132,0.0,2.0,80,0.00,,,0.00,,2013-04-13 06:12:00,
2013-04-13 00:23:00,36.0,31.0,29.93,SE,144,0.0,3.0,81,0.00,,,0.00,,2013-04-13 06:23:00,
2013-04-13 00:34:00,36.0,31.0,29.92,South,182,1.0,5.0,82,0.00,,,0.00,,2013-04-13 06:34:00,
2013-04-13 00:46:00,36.0,31.0,29.92,South,182,1.0,5.0,82,0.00,,,0.00,,2013-04-13 06:46:00,
2013-04-13 00:53:00,36.0,31.0,29.92,SSE,150,1.0,9.0,82,0.00,,,0.00,,2013-04-13 06:53:00,
2013-04-13 01:05:00,36.0,31.0,29.91,SSE,161,0.0,3.0,82,0.00,,,0.00,,2013-04-13 07:05:00,
2013-04-13 01:14:00,36.0,31.0,29.91,SSE,161,0.0,3.0,82,0.00,,,0.00,,2013-04-13 07:14:00,
2013-04-13 01:24:00,36.0,31.0,29.91,South,175,3.0,8.0,83,0.00,,,0.00,,2013-04-13 07:24:00,
2013-04-13 01:34:00,36.0,31.0,29.90,South,180,2.0,7.0,83,0.00,,,0.00,,2013-04-13 07:34:00,
2013-04-13 01:44:00,36.0,31.0,29.90,South,180,2.0,7.0,83,0.00,,,0.00,,2013-04-13 07:44:00,
2013-04-13 01:54:00,36.0,31.0,29.89,SSE,165,2.0,6.0,83,0.00,,,0.00,,2013-04-13 07:54:00,
2013-04-13 02:06:00,35.0,31.0,29.89,South,173,0.0,3.0,84,0.00,,,0.00,,2013-04-13 08:06:00,
2013-04-13 02:15:00,35.0,31.0,29.89,South,173,0.0,3.0,84,0.00,,,0.00,,2013-04-13 08:15:00,
2013-04-13 02:25:00,35.0,31.0,29.88,South,171,0.0,4.0,84,0.00,,,0.00,,2013-04-13 08:25:00,
2013-04-13 02:34:00,34.0,30.0,29.87,South,171,0.0,0.0,84,0.00,,,0.00,,2013-04-13 08:34:00,
2013-04-13 02:45:00,34.0,30.0,29.87,South,171,0.0,0.0,84,0.00,,,0.00,,2013-04-13 08:45:00,
2013-04-13 02:53:00,34.0,30.0,29.86,South,171,0.0,0.0,85,0.00,,,0.00,,2013-04-13 08:53:00,
2013-04-13 03:05:00,33.0,29.0,29.85,South,171,0.0,0.0,85,0.00,,,0.00,,2013-04-13 09:05:00,
2013-04-13 03:14:00,33.0,29.0,29.85,South,171,0.0,0.0,85,0.00,,,0.00,,2013-04-13 09:14:00,
2013-04-13 03:24:00,32.0,29.0,29.85,South,171,0.0,0.0,87,0.00,,,0.00,,2013-04-13 09:24:00,
2013-04-13 03:36:00,32.0,29.0,29.85,South,171,0.0,0.0,87,0.00,,,0.00,,2013-04-13 09:36:00,
2013-04-13 03:49:00,32.0,29.0,29.85,South,171,0.0,0.0,87,0.00,,,0.00,,2013-04-13 09:49:00,
2013-04-13 04:05:00,31.0,28.0,29.83,South,171,0.0,0.0,88,0.00,,,0.00,,2013-04-13 10:05:00,
2013-04-13 04:15:00,31.0,28.0,29.82,SSW,195,0.0,0.0,88,0.00,,,0.00,,2013-04-13 10:15:00,
2013-04-13 04:24:00,31.0,28.0,29.82,SSW,195,0.0,0.0,88,0.00,,,0.00,,2013-04-13 10:24:00,
2013-04-13 04:36:00,31.0,28.0,29.82,SSW,195,0.0,0.0,89,0.00,,,0.00,,2013-04-13 10:36:00,
2013-04-13 04:45:00,31.0,28.0,29.82,SSW,195,0.0,0.0,89,0.00,,,0.00,,2013-04-13 10:45:00,
2013-04-13 04:53:00,30.0,27.0,29.81,SSW,195,0.0,0.0,89,0.00,,,0.00,,2013-04-13 10:53:00,
2013-04-13 05:05:00,30.0,27.0,29.80,SSW,195,0.0,0.0,90,0.00,,,0.00,,2013-04-13 11:05:00,
2013-04-13 05:13:00,30.0,27.0,29.80,SSW,195,0.0,0.0,90,0.00,,,0.00,,2013-04-13 11:13:00,
2013-04-13 05:34:00,30.0,27.0,29.79,SSW,195,0.0,2.0,90,0.00,,,0.00,,2013-04-13 11:34:00,
2013-04-13 05:44:00,30.0,27.0,29.79,SSW,195,0.0,2.0,90,0.00,,,0.00,,2013-04-13 11:44:00,
2013-04-13 05:53:00,30.0,28.0,29.78,SSW,195,0.0,0.0,91,0.00,,,0.00,,2013-04-13 11:53:00,
2013-04-13 06:08:00,30.0,27.0,29.77,SSW,195,0.0,0.0,90,0.00,,,0.00,,2013-04-13 12:08:00,
2013-04-13 06:14:00,30.0,27.0,29.77,SSW,195,0.0,0.0,90,0.00,,,0.00,,2013-04-13 12:14:00,
2013-04-13 06:35:00,30.0,28.0,29.75,SSW,195,0.0,0.0,91,0.00,,,0.00,,2013-04-13 12:35:00,
2013-04-13 06:46:00,30.0,28.0,29.75,SSW,195,0.0,0.0,91,0.00,,,0.00,,2013-04-13 12:46:00,
2013-04-13 06:54:00,31.0,28.0,29.75,SSW,195,0.0,0.0,90,0.00,,,0.00,,2013-04-13 12:54:00,
2013-04-13 07:05:00,31.0,28.0,29.74,SSW,195,0.0,0.0,90,0.00,,,0.00,,2013-04-13 13:05:00,
2013-04-13 07:15:00,31.0,28.0,29.74,SSW,195,0.0,0.0,90,0.00,,,0.00,,2013-04-13 13:15:00,
2013-04-13 07:27:00,31.0,28.0,29.74,WNW,299,0.0,0.0,90,0.00,,,0.00,,2013-04-13 13:27:00,
2013-04-13 07:34:00,32.0,29.0,29.72,WNW,301,0.0,0.0,90,0.00,,,0.00,,2013-04-13 13:34:00,
2013-04-13 07:47:00,32.0,29.0,29.72,WNW,301,0.0,0.0,90,0.00,,,0.00,,2013-04-13 13:47:00,
2013-04-13 07:53:00,33.0,30.0,29.72,SW,232,0.0,0.0,89,0.00,,,0.00,,2013-04-13 13:53:00,
2013-04-13 08:04:00,35.0,30.0,29.70,South,183,2.0,7.0,83,0.00,,,0.00,,2013-04-13 14:04:00,
2013-04-13 08:14:00,35.0,30.0,29.70,South,183,2.0,7.0,83,0.00,,,0.00,,2013-04-13 14:14:00,
2013-04-13 08:23:00,36.0,30.0,29.70,South,182,0.0,3.0,78,0.00,,,0.00,,2013-04-13 14:23:00,
2013-04-13 08:37:00,38.0,31.0,29.69,South,182,0.0,0.0,75,0.00,,,0.00,,2013-04-13 14:37:00,
2013-04-13 08:45:00,38.0,31.0,29.69,South,182,0.0,0.0,75,0.00,,,0.00,,2013-04-13 14:45:00,
2013-04-13 08:54:00,39.0,30.0,29.67,South,178,2.0,7.0,69,0.00,,,0.00,,2013-04-13 14:54:00,
2013-04-13 09:04:00,41.0,29.0,29.66,SE,146,3.0,7.0,62,0.00,,,0.00,,2013-04-13 15:04:00,
2013-04-13 09:14:00,41.0,29.0,29.66,SE,146,3.0,7.0,62,0.00,,,0.00,,2013-04-13 15:14:00,
2013-04-13 09:28:00,43.0,30.0,29.66,South,183,2.0,6.0,59,0.00,,,0.00,,2013-04-13 15:28:00,
2013-04-13 09:35:00,46.0,30.0,29.65,South,182,3.0,12.0,54,0.00,,,0.00,,2013-04-13 15:35:00,
2013-04-13 09:44:00,46.0,30.0,29.65,South,182,3.0,12.0,54,0.00,,,0.00,,2013-04-13 15:44:00,
2013-04-13 09:55:00,50.0,27.0,29.64,SSE,161,6.0,13.0,40,0.00,,,0.00,,2013-04-13 15:55:00,
2013-04-13 10:06:00,52.0,26.0,29.62,SE,146,5.0,9.0,36,0.00,,,0.00,,2013-04-13 16:06:00,
2013-04-13 10:15:00,52.0,26.0,29.62,SE,146,5.0,9.0,36,0.00,,,0.00,,2013-04-13 16:15:00,
2013-04-13 10:24:00,53.0,25.0,29.62,SSW,207,1.0,8.0,34,0.00,,,0.00,,2013-04-13 16:24:00,
2013-04-13 10:35:00,55.0,23.0,29.61,South,178,3.0,8.0,29,0.00,,,0.00,,2013-04-13 16:35:00,
2013-04-13 10:45:00,55.0,23.0,29.61,South,178,3.0,8.0,29,0.00,,,0.00,,2013-04-13 16:45:00,
2013-04-13 10:53:00,56.0,22.0,29.60,SSE,155,4.0,12.0,26,0.00,,,0.00,,2013-04-13 16:53:00,
2013-04-13 11:20:00,57.0,22.0,29.60,South,175,6.0,10.0,25,0.00,,,0.00,,2013-04-13 17:20:00,
2013-04-13 11:37:00,61.0,17.0,29.57,SSE,163,4.0,10.0,18,0.00,,,0.00,,2013-04-13 17:37:00,
2013-04-13 11:43:00,61.0,17.0,29.57,SSE,163,4.0,10.0,18,0.00,,,0.00,,2013-04-13 17:43:00,
2013-04-13 11:58:00,63.0,15.0,29.55,SSE,154,5.0,7.0,15,0.00,,,0.00,,2013-04-13 17:58:00,
2013-04-13 12:05:00,63.0,15.0,29.55,SSE,163,3.0,11.0,15,0.00,,,0.00,,2013-04-13 18:05:00,
2013-04-13 12:24:00,63.0,15.0,29.53,SSE,163,3.0,12.0,15,0.00,,,0.00,,2013-04-13 18:24:00,
2013-04-13 12:33:00,64.0,12.0,29.53,ESE,111,5.0,9.0,13,0.00,,,0.00,,2013-04-13 18:33:00,
2013-04-13 12:42:00,64.0,12.0,29.53,ESE,111,5.0,9.0,13,0.00,,,0.00,,2013-04-13 18:42:00,
2013-04-13 12:52:00,64.0,14.0,29.51,South,173,3.0,9.0,14,0.00,,,0.00,,2013-04-13 18:52:00,
2013-04-13 13:03:00,65.0,15.0,29.50,ESE,119,3.0,7.0,14,0.00,,,0.00,,2013-04-13 19:03:00,
2013-04-13 13:12:00,65.0,15.0,29.50,ESE,119,3.0,7.0,14,0.00,,,0.00,,2013-04-13 19:12:00,
2013-04-13 13:22:00,66.0,14.0,29.49,NW,318,0.0,9.0,13,0.00,,,0.00,,2013-04-13 19:22:00,
2013-04-13 13:32:00,67.0,16.0,29.48,North,360,6.0,11.0,14,0.00,,,0.00,,2013-04-13 19:32:00,
2013-04-13 13:42:00,67.0,16.0,29.48,North,360,6.0,11.0,14,0.00,,,0.00,,2013-04-13 19:42:00,
2013-04-13 13:52:00,67.0,15.0,29.47,NNW,342,3.0,7.0,13,0.00,,,0.00,,2013-04-13 19:52:00,
2013-04-13 14:02:00,67.0,15.0,29.46,East,80,2.0,7.0,13,0.00,,,0.00,,2013-04-13 20:02:00,
2013-04-13 14:12:00,67.0,15.0,29.46,East,80,2.0,7.0,13,0.00,,,0.00,,2013-04-13 20:12:00,
2013-04-13 14:22:00,68.0,15.0,29.46,ESE,109,3.0,8.0,13,0.00,,,0.00,,2013-04-13 20:22:00,
2013-04-13 14:32:00,68.0,17.0,29.45,NNE,29,4.0,7.0,14,0.00,,,0.00,,2013-04-13 20:32:00,
2013-04-13 14:42:00,68.0,17.0,29.45,NNE,29,4.0,7.0,14,0.00,,,0.00,,2013-04-13 20:42:00,
2013-04-13 14:52:00,68.0,17.0,29.44,North,5,4.0,10.0,14,0.00,,,0.00,,2013-04-13 20:52:00,
2013-04-13 15:02:00,67.0,16.0,29.44,ENE,63,3.0,7.0,14,0.00,,,0.00,,2013-04-13 21:02:00,
2013-04-13 15:12:00,67.0,16.0,29.44,ENE,63,3.0,7.0,14,0.00,,,0.00,,2013-04-13 21:12:00,
2013-04-13 15:22:00,67.0,16.0,29.42,NNE,27,0.0,5.0,14,0.00,,,0.00,,2013-04-13 21:22:00,
2013-04-13 15:33:00,68.0,19.0,29.41,WNW,296,1.0,6.0,15,0.00,,,0.00,,2013-04-13 21:33:00,
2013-04-13 15:43:00,68.0,19.0,29.41,WNW,296,1.0,6.0,15,0.00,,,0.00,,2013-04-13 21:43:00,
2013-04-13 15:52:00,68.0,19.0,29.40,NNE,13,3.0,10.0,15,0.00,,,0.00,,2013-04-13 21:52:00,
2013-04-13 16:03:00,67.0,19.0,29.39,NNW,331,3.0,10.0,16,0.00,,,0.00,,2013-04-13 22:03:00,
2013-04-13 16:12:00,67.0,19.0,29.39,NNW,331,3.0,10.0,16,0.00,,,0.00,,2013-04-13 22:12:00,
2013-04-13 16:22:00,68.0,20.0,29.39,North,11,2.0,6.0,16,0.00,,,0.00,,2013-04-13 22:22:00,
2013-04-13 16:33:00,68.0,19.0,29.38,NNW,338,3.0,8.0,15,0.00,,,0.00,,2013-04-13 22:33:00,
2013-04-13 16:42:00,68.0,19.0,29.38,NNW,338,3.0,8.0,15,0.00,,,0.00,,2013-04-13 22:42:00,
2013-04-13 16:53:00,67.0,19.0,29.37,NNE,26,3.0,8.0,16,0.00,,,0.00,,2013-04-13 22:53:00,
2013-04-13 17:02:00,66.0,21.0,29.36,NNW,340,6.0,12.0,18,0.00,,,0.00,,2013-04-13 23:02:00,
2013-04-13 17:12:00,66.0,21.0,29.36,NNW,340,6.0,12.0,18,0.00,,,0.00,,2013-04-13 23:12:00,
2013-04-13 17:22:00,65.0,22.0,29.36,NNW,344,5.0,11.0,19,0.00,,,0.00,,2013-04-13 23:22:00,
2013-04-13 17:32:00,64.0,22.0,29.36,NNE,20,5.0,9.0,20,0.00,,,0.00,,2013-04-13 23:32:00,
2013-04-13 17:42:00,64.0,22.0,29.36,NNE,20,5.0,9.0,20,0.00,,,0.00,,2013-04-13 23:42:00,
2013-04-13 17:53:00,64.0,23.0,29.35,NNE,26,4.0,9.0,21,0.00,,,0.00,,2013-04-13 23:53:00,
2013-04-13 18:02:00,63.0,21.0,29.34,NE,38,3.0,9.0,20,0.00,,,0.00,,2013-04-14 00:02:00,
2013-04-13 18:12:00,63.0,21.0,29.34,NE,38,3.0,9.0,20,0.00,,,0.00,,2013-04-14 00:12:00,
2013-04-13 18:22:00,63.0,24.0,29.34,NE,37,2.0,7.0,22,0.00,,,0.00,,2013-04-14 00:22:00,
2013-04-13 18:32:00,64.0,24.0,29.34,NNE,24,4.0,7.0,22,0.00,,,0.00,,2013-04-14 00:32:00,
2013-04-13 18:42:00,64.0,24.0,29.34,NNE,24,4.0,7.0,22,0.00,,,0.00,,2013-04-14 00:42:00,
2013-04-13 18:52:00,63.0,24.0,29.34,NNE,26,5.0,11.0,22,0.00,,,0.00,,2013-04-14 00:52:00,
2013-04-13 19:02:00,63.0,24.0,29.34,NNE,26,5.0,11.0,22,0.00,,,0.00,,2013-04-14 01:02:00,
2013-04-13 19:12:00,63.0,24.0,29.34,NNE,26,5.0,11.0,22,0.00,,,0.00,,2013-04-14 01:12:00,
2013-04-13 19:22:00,62.0,24.0,29.34,NNE,19,2.0,8.0,23,0.00,,,0.00,,2013-04-14 01:22:00,
2013-04-13 19:32:00,61.0,28.0,29.33,East,90,0.0,7.0,28,0.00,,,0.00,,2013-04-14 01:32:00,
2013-04-13 19:42:00,61.0,28.0,29.33,East,90,0.0,7.0,28,0.00,,,0.00,,2013-04-14 01:42:00,
2013-04-13 19:53:00,60.0,29.0,29.33,ESE,111,3.0,6.0,31,0.00,,,0.00,,2013-04-14 01:53:00,
2013-04-13 20:02:00,59.0,30.0,29.32,ESE,122,5.0,10.0,33,0.00,,,0.00,,2013-04-14 02:02:00,
2013-04-13 20:12:00,59.0,30.0,29.32,ESE,122,5.0,10.0,33,0.00,,,0.00,,2013-04-14 02:12:00,
2013-04-13 20:22:00,58.0,32.0,29.32,ESE,115,4.0,10.0,37,0.00,,,0.00,,2013-04-14 02:22:00,
2013-04-13 20:32:00,57.0,32.0,29.33,SSE,160,0.0,3.0,38,0.00,,,0.00,,2013-04-14 02:32:00,
2013-04-13 20:42:00,57.0,32.0,29.33,SSE,160,0.0,3.0,38,0.00,,,0.00,,2013-04-14 02:42:00,
2013-04-13 20:53:00,56.0,31.0,29.34,East,97,2.0,6.0,39,0.00,,,0.00,,2013-04-14 02:53:00,
2013-04-13 21:02:00,55.0,31.0,29.34,SE,132,0.0,4.0,40,0.00,,,0.00,,2013-04-14 03:02:00,
2013-04-13 21:12:00,55.0,31.0,29.34,SE,132,0.0,4.0,40,0.00,,,0.00,,2013-04-14 03:12:00,
2013-04-13 21:22:00,55.0,31.0,29.34,East,83,1.0,3.0,39,0.00,,,0.00,,2013-04-14 03:22:00,
2013-04-13 21:33:00,55.0,31.0,29.34,NE,34,2.0,6.0,40,0.00,,,0.00,,2013-04-14 03:33:00,
2013-04-13 21:42:00,55.0,31.0,29.34,NE,34,2.0,6.0,40,0.00,,,0.00,,2013-04-14 03:42:00,
2013-04-13 21:53:00,54.0,30.0,29.34,NE,44,3.0,8.0,40,0.00,,,0.00,,2013-04-14 03:53:00,
2013-04-13 22:02:00,53.0,30.0,29.33,ESE,106,2.0,6.0,41,0.00,,,0.00,,2013-04-14 04:02:00,
2013-04-13 22:12:00,53.0,30.0,29.33,ESE,106,2.0,6.0,41,0.00,,,0.00,,2013-04-14 04:12:00,
2013-04-13 22:23:00,53.0,31.0,29.32,East,88,3.0,10.0,42,0.00,,,0.00,,2013-04-14 04:23:00,
2013-04-13 22:32:00,52.0,31.0,29.34,East,92,0.0,5.0,45,0.00,,,0.00,,2013-04-14 04:32:00,
2013-04-13 22:42:00,52.0,31.0,29.34,East,92,0.0,5.0,45,0.00,,,0.00,,2013-04-14 04:42:00,
2013-04-13 22:52:00,52.0,33.0,29.32,NNE,23,3.0,8.0,48,0.00,,,0.00,,2013-04-14 04:52:00,
2013-04-13 23:02:00,51.0,33.0,29.32,NNE,17,2.0,7.0,50,0.00,,,0.00,,2013-04-14 05:02:00,
2013-04-13 23:12:00,51.0,33.0,29.32,NNE,17,2.0,7.0,50,0.00,,,0.00,,2013-04-14 05:12:00,
2013-04-13 23:22:00,50.0,33.0,29.32,NNE,19,2.0,8.0,51,0.00,,,0.00,,2013-04-14 05:22:00,
2013-04-13 23:32:00,50.0,34.0,29.33,NNE,16,3.0,5.0,53,0.00,,,0.00,,2013-04-14 05:32:00,
2013-04-13 23:42:00,50.0,34.0,29.33,NNE,16,3.0,5.0,53,0.00,,,0.00,,2013-04-14 05:42:00,
2013-04-13 23:52:00,49.0,35.0,29.36,North,360,8.0,20.0,59,0.00,,,0.00,,2013-04-14 05:52:00,